Time;durP1;ratioP1;P1;durP2;ratioP2;P2;SDS_P1;SDS_P2;PMS_P1;PMS_P2;Temp;Humidity;BMP_temperature;BMP_pressure;BME280_temperature;BME280_humidity;BME280_pressure;Samples;Min_cycle;Max_cycle;Signal;HPM_P1;HPM_P2
2022/02/15 00:01:08;;;;;;;3.42;2.83;;;7.30;82.80;;;;;;5039586;28;20013;-85
2022/02/15 00:03:33;;;;;;;4.00;2.67;;;7.30;83.00;;;;;;5057054;28;20029;-85
2022/02/15 00:05:59;;;;;;;4.10;2.60;;;7.30;83.00;;;;;;5039384;28;20083;-85
2022/02/15 00:08:25;;;;;;;7.13;2.90;;;7.30;83.00;;;;;;5056682;28;20052;-85
2022/02/15 00:10:51;;;;;;;3.25;2.58;;;7.30;83.20;;;;;;5056304;28;20026;-85
2022/02/15 00:13:18;;;;;;;3.28;2.20;;;7.20;83.40;;;;;;5056011;28;20133;-85
2022/02/15 00:15:44;;;;;;;5.18;2.85;;;7.20;83.60;;;;;;5038546;28;20030;-85
2022/02/15 00:18:10;;;;;;;6.10;3.03;;;7.20;83.60;;;;;;5038557;28;20017;-85
2022/02/15 00:20:36;;;;;;;3.83;2.45;;;7.20;83.70;;;;;;5034163;28;20072;-85
2022/02/15 00:23:03;;;;;;;3.63;2.42;;;7.20;83.80;;;;;;5055559;28;20030;-85
2022/02/15 00:25:29;;;;;;;3.72;2.75;;;7.20;83.90;;;;;;5056072;28;20114;-85
2022/02/15 00:27:54;;;;;;;4.07;2.20;;;7.10;83.90;;;;;;5056414;28;20022;-85
2022/02/15 00:30:21;;;;;;;4.53;2.45;;;7.10;84.00;;;;;;5056325;28;20030;-85
2022/02/15 00:32:47;;;;;;;3.42;2.30;;;7.10;84.60;;;;;;5056043;28;20160;-85
2022/02/15 00:35:13;;;;;;;4.07;2.83;;;7.10;84.00;;;;;;5056148;28;20037;-85
2022/02/15 00:37:39;;;;;;;4.85;2.72;;;7.10;84.00;;;;;;5038226;28;20036;-85
2022/02/15 00:40:06;;;;;;;5.32;2.95;;;7.10;84.10;;;;;;5037785;28;20021;-85
2022/02/15 00:42:32;;;;;;;3.92;2.50;;;7.10;84.20;;;;;;5055992;28;20064;-84
2022/02/15 00:44:58;;;;;;;4.65;2.88;;;7.10;84.40;;;;;;5055518;28;20571;-85
2022/02/15 00:47:23;;;;;;;5.88;3.75;;;7.10;84.40;;;;;;5055607;28;20033;-85
2022/02/15 00:49:49;;;;;;;6.47;3.80;;;7.10;84.60;;;;;;5054164;28;20029;-85
2022/02/15 00:52:15;;;;;;;5.25;3.15;;;7.00;84.70;;;;;;5035528;28;20014;-85
2022/02/15 00:54:41;;;;;;;5.40;3.47;;;7.00;85.10;;;;;;5055780;28;20023;-85
2022/02/15 00:57:06;;;;;;;5.13;3.85;;;7.00;85.30;;;;;;5038269;28;20033;-85
2022/02/15 00:59:32;;;;;;;7.07;3.03;;;7.00;85.40;;;;;;5055371;28;20040;-85
2022/02/15 01:01:58;;;;;;;4.70;3.28;;;7.00;85.60;;;;;;5035147;28;20022;-84
2022/02/15 01:04:24;;;;;;;3.90;3.03;;;7.00;85.70;;;;;;5054017;28;20029;-85
2022/02/15 01:06:49;;;;;;;6.32;3.05;;;7.00;85.80;;;;;;5054974;28;20017;-85
2022/02/15 01:09:15;;;;;;;3.42;2.83;;;7.00;86.00;;;;;;5037433;28;20049;-86
2022/02/15 01:11:41;;;;;;;4.03;3.05;;;7.00;86.10;;;;;;5055036;28;20055;-85
2022/02/15 01:14:07;;;;;;;5.57;3.17;;;6.90;85.90;;;;;;5055357;28;20060;-86
2022/02/15 01:16:33;;;;;;;4.60;3.00;;;6.90;85.80;;;;;;5055442;28;20018;-85
2022/02/15 01:18:58;;;;;;;5.90;3.40;;;6.90;86.60;;;;;;5047790;28;20033;-85
2022/02/15 01:21:24;;;;;;;3.85;2.78;;;6.90;85.90;;;;;;5020012;28;20045;-85
2022/02/15 01:23:50;;;;;;;5.18;2.53;;;6.90;85.90;;;;;;5055436;28;20025;-85
2022/02/15 01:26:16;;;;;;;3.08;2.35;;;6.90;85.90;;;;;;5037877;28;20091;-85
2022/02/15 01:28:41;;;;;;;3.00;2.53;;;6.90;85.70;;;;;;5055286;28;20091;-85
2022/02/15 01:31:09;;;;;;;3.10;2.10;;;6.90;85.60;;;;;;5037888;28;20092;-84
2022/02/15 01:33:35;;;;;;;4.78;2.88;;;6.90;85.50;;;;;;5055180;28;20041;-83
2022/02/15 01:36:00;;;;;;;4.93;3.17;;;6.90;84.80;;;;;;5038028;28;20037;-83
2022/02/15 01:38:27;;;;;;;4.95;2.97;;;6.90;85.20;;;;;;5055443;28;20017;-81
2022/02/15 01:40:53;;;;;;;3.50;2.60;;;6.80;85.50;;;;;;5054951;28;20021;-81
2022/02/15 01:43:19;;;;;;;5.72;2.75;;;6.80;85.70;;;;;;5037803;28;20041;-82
2022/02/15 01:45:45;;;;;;;4.15;2.88;;;6.70;86.00;;;;;;5055184;28;20009;-82
2022/02/15 01:48:11;;;;;;;3.90;2.45;;;6.70;86.40;;;;;;5037426;28;20093;-82
2022/02/15 01:50:37;;;;;;;4.05;2.65;;;6.70;86.80;;;;;;5033326;28;20013;-82
2022/02/15 01:53:03;;;;;;;5.53;3.60;;;6.80;87.20;;;;;;5053606;28;20021;-82
2022/02/15 01:55:29;;;;;;;2.70;2.40;;;6.70;87.50;;;;;;5054867;28;20040;-82
2022/02/15 01:57:55;;;;;;;6.07;3.85;;;6.80;87.90;;;;;;5037220;28;20010;-82
2022/02/15 02:00:22;;;;;;;5.65;3.47;;;6.80;88.70;;;;;;5055067;28;20054;-82
2022/02/15 02:02:48;;;;;;;4.95;3.33;;;6.70;88.40;;;;;;5037426;28;20029;-83
2022/02/15 02:07:58;;;;;;;5.95;3.47;;;6.70;89.40;;;;;;5054765;28;20028;-82
2022/02/15 02:10:24;;;;;;;6.15;3.92;;;6.70;90.00;;;;;;5055241;28;20013;-81
2022/02/15 02:12:50;;;;;;;4.03;3.35;;;6.70;90.20;;;;;;5037506;28;20033;-81
2022/02/15 02:15:21;;;;;;;4.90;3.40;;;6.60;90.50;;;;;;5054893;28;20020;-82
2022/02/15 02:17:47;;;;;;;4.28;3.10;;;6.60;90.80;;;;;;5037039;28;20026;-83
2022/02/15 02:20:14;;;;;;;4.93;3.17;;;6.50;91.10;;;;;;5047455;28;20060;-84
2022/02/15 02:22:40;;;;;;;3.90;3.28;;;6.50;91.40;;;;;;5053327;28;20014;-81
2022/02/15 02:25:08;;;;;;;2.90;2.50;;;6.50;91.60;;;;;;5053567;28;20080;-85
2022/02/15 02:27:34;;;;;;;3.60;2.97;;;6.50;91.80;;;;;;5052621;28;20109;-85
2022/02/15 02:30:00;;;;;;;3.80;2.70;;;6.50;92.20;;;;;;5034706;28;20120;-85
2022/02/15 02:32:29;;;;;;;5.32;3.15;;;6.50;92.30;;;;;;5034659;28;20093;-86
2022/02/15 02:34:56;;;;;;;4.88;2.60;;;6.50;92.50;;;;;;5034528;28;20040;-84
2022/02/15 02:37:23;;;;;;;4.22;3.38;;;6.50;92.70;;;;;;5035375;28;20021;-85
2022/02/15 02:39:51;;;;;;;3.10;2.72;;;6.40;92.90;;;;;;5036102;28;20021;-87
2022/02/15 02:42:18;;;;;;;5.40;3.28;;;6.40;93.00;;;;;;5036627;28;20036;-87
2022/02/15 02:44:45;;;;;;;4.32;3.15;;;6.40;93.30;;;;;;5053996;28;20044;-87
2022/02/15 02:47:11;;;;;;;2.90;2.47;;;6.40;93.50;;;;;;5036250;28;20041;-87
2022/02/15 02:49:37;;;;;;;4.03;2.53;;;6.40;93.70;;;;;;5035908;28;20065;-85
2022/02/15 02:52:03;;;;;;;3.30;2.55;;;6.40;93.90;;;;;;5035784;28;20113;-87
2022/02/15 02:54:29;;;;;;;3.90;2.97;;;6.50;94.10;;;;;;5036107;28;20075;-85
2022/02/15 02:56:56;;;;;;;5.05;2.90;;;6.50;94.10;;;;;;5053618;28;20025;-86
2022/02/15 02:59:22;;;;;;;4.10;2.97;;;6.50;94.20;;;;;;5036651;28;20088;-87
2022/02/15 03:01:48;;;;;;;3.78;2.28;;;6.40;94.30;;;;;;5054305;28;20077;-86
2022/02/15 03:04:16;;;;;;;4.38;3.35;;;6.40;94.50;;;;;;5036998;28;20040;-87
2022/02/15 03:06:41;;;;;;;4.32;3.03;;;6.40;94.60;;;;;;5054430;28;20029;-87
2022/02/15 03:09:07;;;;;;;6.20;3.47;;;6.40;94.80;;;;;;5036309;28;20048;-87
2022/02/15 03:11:33;;;;;;;4.05;2.83;;;6.40;95.00;;;;;;5055527;28;20033;-89
2022/02/15 03:14:00;;;;;;;4.38;2.80;;;6.40;95.20;;;;;;5057967;28;20122;-88
2022/02/15 03:16:26;;;;;;;4.00;2.83;;;6.40;95.40;;;;;;5057815;28;20051;-88
2022/02/15 03:18:52;;;;;;;4.28;2.88;;;6.30;95.50;;;;;;5057857;28;20037;-88
2022/02/15 03:21:18;;;;;;;6.18;3.17;;;6.30;95.80;;;;;;5040274;28;20061;-87
2022/02/15 03:23:45;;;;;;;4.35;3.10;;;6.30;96.00;;;;;;5040395;28;20044;-87
2022/02/15 03:26:11;;;;;;;4.50;3.38;;;6.30;96.20;;;;;;5039863;28;20041;-87
2022/02/15 03:28:37;;;;;;;4.07;2.53;;;6.30;96.20;;;;;;5039226;28;20041;-85
2022/02/15 03:31:04;;;;;;;5.20;2.72;;;6.30;96.50;;;;;;5055153;28;20025;-85
2022/02/15 03:33:30;;;;;;;4.90;2.80;;;6.30;96.70;;;;;;5053013;28;20045;-85
2022/02/15 03:35:56;;;;;;;2.78;2.20;;;6.30;96.60;;;;;;5036624;28;20018;-85
2022/02/15 03:38:22;;;;;;;3.78;2.53;;;6.30;96.80;;;;;;5046700;28;20035;-85
2022/02/15 03:43:32;;;;;;;4.07;2.20;;;6.20;97.60;;;;;;5044652;28;20159;-85
2022/02/15 03:45:58;;;;;;;2.70;1.60;;;6.10;97.80;;;;;;5046466;28;20021;-85
2022/02/15 03:48:24;;;;;;;3.30;1.70;;;6.00;98.10;;;;;;5042517;28;20039;-85
2022/02/15 03:50:50;;;;;;;4.20;2.40;;;6.10;98.40;;;;;;5024104;28;20044;-85
2022/02/15 03:53:17;;;;;;;6.18;1.77;;;6.00;98.70;;;;;;5029016;28;20040;-85
2022/02/15 03:55:43;;;;;;;2.92;1.75;;;6.00;98.50;;;;;;5055228;28;20025;-86
2022/02/15 03:58:09;;;;;;;5.50;2.03;;;6.00;98.70;;;;;;5038216;28;20025;-86
2022/02/15 04:00:35;;;;;;;2.22;1.80;;;5.90;99.00;;;;;;5046797;28;20033;-85
2022/02/15 04:03:02;;;;;;;4.65;2.08;;;5.90;99.40;;;;;;5054622;28;20093;-85
2022/02/15 04:05:28;;;;;;;3.83;1.80;;;5.90;99.50;;;;;;5053086;28;20041;-85
2022/02/15 04:07:53;;;;;;;3.20;2.00;;;5.90;99.90;;;;;;5037885;28;20029;-85
2022/02/15 04:10:19;;;;;;;2.03;1.60;;;5.80;99.90;;;;;;5055697;28;20074;-85
2022/02/15 04:12:46;;;;;;;4.40;2.15;;;5.80;99.90;;;;;;5056421;28;20018;-85
2022/02/15 04:15:12;;;;;;;2.40;1.92;;;5.70;99.90;;;;;;5055372;28;20021;-85
2022/02/15 04:17:39;;;;;;;4.30;2.45;;;5.70;99.90;;;;;;5055099;28;20152;-85
2022/02/15 04:20:05;;;;;;;2.15;1.83;;;5.70;99.90;;;;;;5036312;28;20036;-85
2022/02/15 04:22:31;;;;;;;3.78;1.80;;;5.70;99.90;;;;;;5052682;28;20017;-85
2022/02/15 04:24:57;;;;;;;3.83;1.60;;;5.70;99.90;;;;;;5035442;28;20036;-85
2022/02/15 04:27:22;;;;;;;2.75;1.70;;;5.60;99.90;;;;;;5053930;28;20029;-85
2022/02/15 04:29:48;;;;;;;3.15;1.90;;;5.60;99.90;;;;;;5050657;28;20130;-86
2022/02/15 04:32:14;;;;;;;2.58;1.70;;;5.50;99.90;;;;;;5046441;28;20029;-85
2022/02/15 04:34:41;;;;;;;3.47;1.75;;;5.50;99.90;;;;;;5022348;28;20030;-85
2022/02/15 04:37:07;;;;;;;3.33;1.75;;;5.50;99.90;;;;;;5040617;28;20075;-85
2022/02/15 04:39:33;;;;;;;3.53;1.70;;;5.50;99.90;;;;;;5038920;28;20399;-86
2022/02/15 04:41:59;;;;;;;4.45;1.83;;;5.50;99.90;;;;;;5038989;28;20021;-85
2022/02/15 04:44:25;;;;;;;2.80;1.65;;;5.50;99.90;;;;;;5020944;28;20470;-86
2022/02/15 04:46:50;;;;;;;2.78;1.77;;;5.40;99.90;;;;;;5038737;28;20037;-85
2022/02/15 04:49:17;;;;;;;2.58;1.95;;;5.40;99.90;;;;;;5038829;28;20033;-85
2022/02/15 04:51:43;;;;;;;2.63;1.83;;;5.40;99.90;;;;;;5038338;28;20026;-85
2022/02/15 04:54:09;;;;;;;3.78;1.75;;;5.40;99.90;;;;;;5036170;28;20032;-85
2022/02/15 04:56:34;;;;;;;2.67;1.90;;;5.40;99.90;;;;;;5020094;28;20025;-85
2022/02/15 04:59:00;;;;;;;2.90;1.80;;;5.40;99.90;;;;;;5037849;28;20045;-86
2022/02/15 05:01:26;;;;;;;2.25;1.83;;;5.40;99.90;;;;;;5020107;28;20030;-85
2022/02/15 05:03:52;;;;;;;3.42;2.17;;;5.40;99.90;;;;;;5037721;28;20057;-86
2022/02/15 05:06:17;;;;;;;2.28;1.55;;;5.40;99.90;;;;;;5028304;28;20026;-85
2022/02/15 05:08:44;;;;;;;3.00;2.20;;;5.40;99.90;;;;;;5038267;28;20029;-85
2022/02/15 05:11:10;;;;;;;2.72;1.55;;;5.40;99.90;;;;;;5038075;28;20037;-85
2022/02/15 05:13:36;;;;;;;1.55;1.45;;;5.50;99.90;;;;;;5020976;28;20037;-84
2022/02/15 05:16:02;;;;;;;2.80;1.80;;;5.50;99.90;;;;;;5011485;28;20046;-85
2022/02/15 05:18:27;;;;;;;3.03;1.30;;;5.50;99.90;;;;;;5029976;28;20026;-85
2022/02/15 05:20:53;;;;;;;1.85;1.25;;;5.50;99.90;;;;;;5016259;28;20454;-85
2022/02/15 05:23:19;;;;;;;3.53;1.40;;;5.50;99.90;;;;;;5015927;28;20088;-85
2022/02/15 05:25:45;;;;;;;2.30;1.40;;;5.50;99.90;;;;;;5015403;28;20069;-86
2022/02/15 05:28:10;;;;;;;2.33;1.40;;;5.40;99.90;;;;;;5017214;28;20033;-85
2022/02/15 05:30:36;;;;;;;2.58;1.20;;;5.40;99.90;;;;;;5016528;28;20110;-86
2022/02/15 05:33:02;;;;;;;2.83;1.80;;;5.40;99.90;;;;;;5017808;28;20026;-86
2022/02/15 05:35:28;;;;;;;2.60;1.88;;;5.40;99.90;;;;;;5029634;28;20096;-85
2022/02/15 05:37:54;;;;;;;2.50;1.40;;;5.40;99.90;;;;;;5049228;28;20010;-85
2022/02/15 05:40:20;;;;;;;3.30;1.40;;;5.30;99.90;;;;;;5052365;28;20024;-84
2022/02/15 05:42:46;;;;;;;1.67;1.17;;;5.30;99.90;;;;;;5024010;28;20025;-84
2022/02/15 05:45:12;;;;;;;3.15;1.48;;;5.30;99.90;;;;;;5049036;28;20033;-84
2022/02/15 05:47:39;;;;;;;1.52;1.08;;;5.20;99.90;;;;;;5035208;28;20045;-84
2022/02/15 05:53:04;;;;;;;2.45;1.17;;;5.20;99.90;;;;;;5025932;28;20053;-84
2022/02/15 05:55:30;;;;;;;2.90;1.40;;;5.20;99.90;;;;;;5048746;28;20022;-85
2022/02/15 05:57:56;;;;;;;2.97;1.45;;;5.20;99.90;;;;;;5026847;28;20092;-84
2022/02/15 06:00:22;;;;;;;3.45;1.30;;;5.20;99.90;;;;;;5038329;28;20077;-85
2022/02/15 06:02:48;;;;;;;1.80;1.23;;;5.20;99.90;;;;;;5021806;28;20045;-85
2022/02/15 06:05:14;;;;;;;2.30;1.40;;;5.10;99.90;;;;;;5031143;28;20028;-84
2022/02/15 06:07:40;;;;;;;3.00;1.38;;;5.10;99.90;;;;;;5050295;28;20009;-83
2022/02/15 06:10:06;;;;;;;4.45;1.35;;;5.10;99.90;;;;;;5042964;28;20036;-84
2022/02/15 06:12:32;;;;;;;4.22;1.40;;;5.10;99.90;;;;;;5019872;28;20037;-84
2022/02/15 06:14:57;;;;;;;3.90;1.50;;;5.10;99.90;;;;;;5037823;28;20018;-84
2022/02/15 06:17:24;;;;;;;3.55;1.60;;;5.10;99.90;;;;;;5019452;28;20025;-85
2022/02/15 06:19:49;;;;;;;2.97;1.05;;;5.10;99.90;;;;;;5018578;28;20085;-86
2022/02/15 06:22:15;;;;;;;2.47;1.50;;;5.10;99.90;;;;;;5018704;28;20253;-85
2022/02/15 06:24:41;;;;;;;4.40;1.67;;;5.10;99.90;;;;;;5034435;28;20068;-85
2022/02/15 06:27:07;;;;;;;2.05;1.40;;;5.10;99.90;;;;;;5036109;28;20505;-85
2022/02/15 06:29:34;;;;;;;2.08;1.25;;;5.10;99.90;;;;;;5037368;28;20449;-86
2022/02/15 06:32:00;;;;;;;2.60;1.30;;;5.10;99.90;;;;;;5037417;28;20457;-85
2022/02/15 06:34:26;;;;;;;1.30;1.10;;;5.10;99.90;;;;;;5036471;28;20030;-85
2022/02/15 06:36:52;;;;;;;3.50;1.48;;;5.10;99.90;;;;;;5020468;28;20165;-85
2022/02/15 06:39:18;;;;;;;1.60;1.20;;;5.10;99.90;;;;;;5038015;28;20022;-84
2022/02/15 06:41:44;;;;;;;3.10;1.48;;;5.10;99.90;;;;;;5037431;28;20113;-85
2022/02/15 06:44:10;;;;;;;3.08;1.42;;;5.20;99.90;;;;;;5037651;28;20421;-85
2022/02/15 06:46:36;;;;;;;1.63;1.30;;;5.20;99.90;;;;;;5039275;28;20029;-85
2022/02/15 06:49:03;;;;;;;4.43;1.77;;;5.30;99.90;;;;;;5046329;28;20033;-84
2022/02/15 06:51:29;;;;;;;2.45;1.65;;;5.30;99.90;;;;;;5027596;28;20371;-85
2022/02/15 06:53:55;;;;;;;1.80;1.10;;;5.20;99.90;;;;;;5025108;28;20063;-85
2022/02/15 06:56:21;;;;;;;2.47;1.17;;;5.20;99.90;;;;;;5025053;28;20025;-86
2022/02/15 06:58:47;;;;;;;3.85;1.50;;;5.20;99.90;;;;;;5046686;28;20021;-85
2022/02/15 07:01:13;;;;;;;2.28;1.50;;;5.20;99.90;;;;;;5044190;28;20495;-85
2022/02/15 07:03:38;;;;;;;1.08;0.93;;;5.30;99.90;;;;;;5041782;28;20029;-85
2022/02/15 07:06:04;;;;;;;1.98;1.35;;;5.30;99.90;;;;;;5013270;28;20048;-86
2022/02/15 07:08:30;;;;;;;3.88;1.58;;;5.40;99.90;;;;;;5041557;28;20088;-85
2022/02/15 07:10:57;;;;;;;2.53;1.55;;;5.40;99.90;;;;;;5026523;28;20038;-85
2022/02/15 07:13:25;;;;;;;2.78;1.42;;;5.50;99.90;;;;;;5040007;28;20174;-85
2022/02/15 07:15:51;;;;;;;3.30;1.25;;;5.40;99.90;;;;;;5040667;28;20017;-85
2022/02/15 07:18:18;;;;;;;1.67;1.20;;;5.50;99.90;;;;;;5041457;28;20017;-85
2022/02/15 07:20:44;;;;;;;5.70;1.63;;;5.50;99.90;;;;;;5029384;28;20021;-86
2022/02/15 07:23:13;;;;;;;3.58;1.58;;;5.50;99.90;;;;;;5041471;28;20026;-85
2022/02/15 07:25:39;;;;;;;2.13;1.92;;;5.40;99.90;;;;;;5043445;28;20029;-86
2022/02/15 07:28:09;;;;;;;8.02;2.80;;;5.40;99.90;;;;;;5040106;28;20025;-84
2022/02/15 07:30:35;;;;;;;6.10;2.72;;;5.50;99.90;;;;;;5024435;28;20116;-85
2022/02/15 07:33:03;;;;;;;7.70;2.60;;;5.50;99.90;;;;;;5041363;28;20025;-85
2022/02/15 07:35:30;;;;;;;4.95;3.13;;;5.50;99.90;;;;;;5035085;28;20188;-84
2022/02/15 07:37:59;;;;;;;13.85;3.83;;;5.50;99.90;;;;;;5007101;28;20477;-85
2022/02/15 07:40:25;;;;;;;8.05;3.00;;;5.50;99.90;;;;;;5004015;28;20501;-85
2022/02/15 07:42:51;;;;;;;5.35;2.28;;;5.40;99.90;;;;;;5020331;28;20026;-85
2022/02/15 07:45:19;;;;;;;4.00;2.63;;;5.40;99.90;;;;;;5020084;28;20033;-85
2022/02/15 07:47:52;;;;;;;5.15;2.53;;;5.40;99.90;;;;;;5019275;28;20058;-87
2022/02/15 07:50:20;;;;;;;3.78;2.53;;;5.40;99.90;;;;;;5001400;28;20037;-87
2022/02/15 07:52:57;;;;;;;7.70;2.88;;;5.50;99.90;;;;;;5018897;28;20030;-84
2022/02/15 07:55:24;;;;;;;5.75;3.28;;;5.60;99.90;;;;;;5003119;28;20141;-85
2022/02/15 07:57:50;;;;;;;3.35;2.60;;;5.60;99.90;;;;;;5020146;28;20041;-85
2022/02/15 08:00:21;;;;;;;3.83;2.30;;;5.60;99.90;;;;;;5020018;28;20026;-85
2022/02/15 08:02:51;;;;;;;2.88;2.45;;;5.70;99.90;;;;;;5007730;28;20030;-85
2022/02/15 08:05:20;;;;;;;3.42;2.45;;;5.70;99.90;;;;;;5027045;28;20018;-85
2022/02/15 08:07:48;;;;;;;3.70;1.83;;;5.80;99.90;;;;;;5030106;28;20037;-84
2022/02/15 08:10:18;;;;;;;8.05;3.10;;;5.80;99.90;;;;;;5054368;28;20033;-83
2022/02/15 08:12:55;;;;;;;3.40;2.53;;;5.90;99.90;;;;;;5020254;28;20025;-85
2022/02/15 08:15:23;;;;;;;5.25;3.08;;;5.90;99.90;;;;;;5024158;28;20041;-85
2022/02/15 08:17:49;;;;;;;3.90;3.05;;;6.00;99.90;;;;;;5024271;28;20057;-85
2022/02/15 08:20:14;;;;;;;3.08;2.47;;;6.00;99.90;;;;;;5025076;28;20028;-86
2022/02/15 08:22:40;;;;;;;6.60;3.22;;;6.00;99.90;;;;;;5023150;28;20026;-85
2022/02/15 08:25:07;;;;;;;8.00;3.35;;;6.10;99.90;;;;;;5064821;22;20021;-82
2022/02/15 08:27:33;;;;;;;6.70;3.65;;;6.20;99.90;;;;;;5004500;28;20119;-82
2022/02/15 08:29:59;;;;;;;8.60;3.63;;;6.30;99.90;;;;;;5004304;28;20068;-82
2022/02/15 08:32:25;;;;;;;3.70;3.05;;;6.30;99.90;;;;;;5023338;28;20030;-82
2022/02/15 08:34:51;;;;;;;4.95;3.22;;;6.40;99.90;;;;;;5003635;28;20057;-83
2022/02/15 08:37:17;;;;;;;3.97;2.92;;;6.40;99.90;;;;;;5031898;28;20136;-83
2022/02/15 08:39:43;;;;;;;3.05;2.55;;;6.50;99.90;;;;;;5026096;28;20028;-83
2022/02/15 08:42:09;;;;;;;3.35;2.58;;;6.50;99.90;;;;;;5043602;28;20037;-83
2022/02/15 08:44:36;;;;;;;3.10;2.47;;;6.50;99.90;;;;;;5043145;28;20021;-83
2022/02/15 08:47:06;;;;;;;4.30;2.80;;;6.50;99.90;;;;;;5044291;28;20148;-83
2022/02/15 08:49:36;;;;;;;3.90;2.63;;;6.50;99.90;;;;;;5047232;28;20029;-82
2022/02/15 08:52:03;;;;;;;4.70;2.70;;;6.50;99.90;;;;;;5050690;28;20018;-82
2022/02/15 08:54:29;;;;;;;3.65;2.58;;;6.60;99.90;;;;;;5042472;28;20036;-82
2022/02/15 08:56:55;;;;;;;5.22;2.97;;;6.70;99.90;;;;;;5026941;28;20021;-82
2022/02/15 08:59:21;;;;;;;3.08;2.25;;;6.70;99.90;;;;;;5044894;28;20105;-83
2022/02/15 09:01:47;;;;;;;3.47;2.45;;;6.80;99.90;;;;;;5027116;28;20017;-83
2022/02/15 09:04:14;;;;;;;5.32;2.30;;;6.80;99.40;;;;;;5024501;28;20037;-81
2022/02/15 09:06:41;;;;;;;1.95;1.75;;;6.90;99.40;;;;;;5024894;28;20021;-82
2022/02/15 09:09:10;;;;;;;2.80;2.10;;;6.90;99.40;;;;;;5040217;28;20033;-82
2022/02/15 09:11:39;;;;;;;2.72;2.00;;;6.90;99.30;;;;;;5026784;28;20033;-82
2022/02/15 09:14:05;;;;;;;1.77;1.67;;;6.90;99.30;;;;;;5052055;28;20025;-82
2022/02/15 09:16:31;;;;;;;4.55;2.40;;;6.90;99.30;;;;;;5035009;28;20598;-82
2022/02/15 09:18:58;;;;;;;3.75;1.95;;;7.00;99.10;;;;;;5026832;28;20025;-83
2022/02/15 09:21:24;;;;;;;3.17;1.92;;;7.00;98.60;;;;;;5045630;28;20021;-83
2022/02/15 09:23:54;;;;;;;2.58;1.67;;;7.10;98.70;;;;;;5043744;28;20030;-83
2022/02/15 09:26:20;;;;;;;6.75;2.33;;;7.20;98.80;;;;;;5024608;28;20029;-83
2022/02/15 09:28:45;;;;;;;3.65;2.00;;;7.30;98.20;;;;;;5024714;28;20092;-82
2022/02/15 09:31:11;;;;;;;3.33;1.73;;;7.40;97.80;;;;;;5022273;28;20041;-82
2022/02/15 09:33:37;;;;;;;3.25;1.40;;;7.40;97.80;;;;;;5024182;28;20033;-81
2022/02/15 09:36:03;;;;;;;2.17;1.30;;;7.50;97.50;;;;;;5040466;28;20025;-82
2022/02/15 09:38:28;;;;;;;1.85;1.13;;;7.50;97.50;;;;;;5029438;28;20025;-82
2022/02/15 09:40:54;;;;;;;1.77;1.40;;;7.60;97.30;;;;;;5027497;28;20057;-82
2022/02/15 09:43:20;;;;;;;2.95;1.58;;;7.70;97.10;;;;;;5026500;28;20240;-83
2022/02/15 09:45:47;;;;;;;4.28;1.30;;;7.80;96.70;;;;;;5026894;28;20034;-82
2022/02/15 09:48:14;;;;;;;2.60;1.40;;;7.90;95.10;;;;;;5010037;28;20068;-82
2022/02/15 09:50:40;;;;;;;5.03;1.90;;;7.80;95.40;;;;;;5026699;28;20032;-82
2022/02/15 09:53:07;;;;;;;2.00;1.40;;;7.80;95.70;;;;;;5027287;28;20029;-83
2022/02/15 09:55:34;;;;;;;4.75;1.83;;;7.80;95.30;;;;;;5010016;28;20088;-82
2022/02/15 09:57:59;;;;;;;4.10;1.50;;;7.80;95.20;;;;;;5027136;28;20081;-82
2022/02/15 10:00:26;;;;;;;3.00;1.08;;;7.80;95.40;;;;;;5031261;28;20037;-82
2022/02/15 10:02:52;;;;;;;3.03;1.08;;;7.90;94.90;;;;;;5035176;28;20022;-83
2022/02/15 10:05:20;;;;;;;2.40;1.20;;;7.80;94.80;;;;;;5041463;28;20037;-83
2022/02/15 10:07:53;;;;;;;2.35;1.45;;;7.80;95.30;;;;;;5047979;28;20025;-82
2022/02/15 10:10:37;;;;;;;1.58;0.90;;;7.70;95.20;;;;;;5031901;28;20056;-83
2022/02/15 10:13:04;;;;;;;1.15;0.88;;;7.70;95.70;;;;;;5032493;28;20025;-83
2022/02/15 10:15:42;;;;;;;1.67;0.85;;;7.80;95.80;;;;;;5032949;28;20045;-83
2022/02/15 10:18:37;;;;;;;1.35;0.90;;;7.80;95.60;;;;;;5015405;28;20022;-83
2022/02/15 10:21:04;;;;;;;2.67;0.93;;;7.90;95.90;;;;;;5030998;28;20041;-83
2022/02/15 10:23:33;;;;;;;1.00;0.90;;;7.90;95.80;;;;;;5036913;28;20041;-83
2022/02/15 10:26:00;;;;;;;0.98;0.80;;;7.90;95.90;;;;;;5037877;28;20018;-82
2022/02/15 10:28:28;;;;;;;1.38;0.90;;;8.00;96.00;;;;;;5038213;28;20018;-83
2022/02/15 10:30:57;;;;;;;1.65;1.17;;;8.00;95.90;;;;;;5038729;28;20021;-84
2022/02/15 10:33:42;;;;;;;3.25;1.50;;;7.90;95.90;;;;;;5032705;28;20033;-84
2022/02/15 10:36:15;;;;;;;1.35;1.25;;;7.90;95.60;;;;;;5040357;28;20049;-83
2022/02/15 10:38:46;;;;;;;2.30;1.02;;;7.90;95.40;;;;;;5041085;28;20031;-83
2022/02/15 10:41:21;;;;;;;2.08;1.27;;;7.90;95.40;;;;;;5038053;28;20024;-83
2022/02/15 10:43:53;;;;;;;44.75;25.30;;;8.00;95.40;;;;;;5059668;28;20018;-84
2022/02/15 10:46:28;;;;;;;31.85;17.42;;;8.10;94.60;;;;;;5026230;28;20010;-83
2022/02/15 10:48:56;;;;;;;21.45;14.55;;;8.20;94.90;;;;;;5038725;28;20045;-83
2022/02/15 10:51:33;;;;;;;14.00;9.80;;;8.20;93.90;;;;;;5038639;28;20022;-84
2022/02/15 10:53:59;;;;;;;3.25;2.35;;;8.30;94.40;;;;;;5035019;28;20026;-83
2022/02/15 10:56:32;;;;;;;6.18;1.90;;;8.30;94.30;;;;;;5031498;28;20034;-84
2022/02/15 10:59:02;;;;;;;1.67;1.00;;;8.20;94.30;;;;;;5031747;28;20018;-84
2022/02/15 11:01:29;;;;;;;1.40;1.10;;;8.10;94.30;;;;;;5033265;28;20033;-83
2022/02/15 11:03:56;;;;;;;2.53;1.60;;;8.00;94.50;;;;;;5032045;28;20045;-83
2022/02/15 11:06:22;;;;;;;2.47;1.00;;;8.00;94.80;;;;;;5025034;28;20021;-83
2022/02/15 11:08:52;;;;;;;0.95;0.90;;;8.00;94.50;;;;;;5052662;28;20034;-83
2022/02/15 11:11:26;;;;;;;1.23;0.98;;;7.90;94.80;;;;;;5051544;28;20089;-83
2022/02/15 11:13:56;;;;;;;2.03;1.00;;;7.80;95.30;;;;;;5052130;28;20032;-83
2022/02/15 11:16:24;;;;;;;1.63;1.17;;;7.70;95.00;;;;;;5052997;28;20043;-83
2022/02/15 11:18:50;;;;;;;2.45;1.00;;;7.80;95.40;;;;;;5038021;28;20018;-83
2022/02/15 11:21:27;;;;;;;3.60;1.13;;;7.80;95.60;;;;;;5037135;28;20077;-83
2022/02/15 11:24:05;;;;;;;1.88;0.95;;;7.80;95.30;;;;;;5018236;28;20030;-83
2022/02/15 11:26:43;;;;;;;1.35;1.25;;;7.80;95.50;;;;;;5034732;28;20036;-84
2022/02/15 11:29:23;;;;;;;1.23;1.08;;;7.70;95.70;;;;;;5034708;28;20045;-84
2022/02/15 11:31:49;;;;;;;2.00;1.40;;;7.70;95.90;;;;;;5034292;28;20018;-82
2022/02/15 11:34:16;;;;;;;4.85;1.95;;;7.70;96.00;;;;;;5034536;28;20049;-83
2022/02/15 11:36:49;;;;;;;1.88;1.65;;;7.60;95.70;;;;;;5052276;28;20100;-84
2022/02/15 11:39:20;;;;;;;2.03;1.50;;;7.60;95.80;;;;;;5038957;28;20144;-83
2022/02/15 11:41:59;;;;;;;3.53;2.03;;;7.50;96.00;;;;;;5016474;28;20093;-82
2022/02/15 11:44:32;;;;;;;1.63;1.40;;;7.50;96.30;;;;;;5033770;28;20018;-83
2022/02/15 11:47:23;;;;;;;2.30;1.95;;;7.50;96.40;;;;;;5032028;28;20022;-82
2022/02/15 11:50:10;;;;;;;3.58;1.70;;;7.40;96.40;;;;;;5028913;28;20021;-83
2022/02/15 11:52:36;;;;;;;2.28;1.52;;;7.50;96.40;;;;;;5029447;28;20110;-83
2022/02/15 11:55:09;;;;;;;4.88;1.70;;;7.50;96.30;;;;;;5032401;28;20026;-83
2022/02/15 11:57:36;;;;;;;7.13;2.40;;;7.50;96.50;;;;;;5032870;28;20048;-83
2022/02/15 12:00:04;;;;;;;9.20;2.58;;;7.60;96.60;;;;;;5031477;28;20052;-83
2022/02/15 12:02:29;;;;;;;5.63;2.10;;;7.80;96.50;;;;;;5016226;28;20026;-82
2022/02/15 12:04:58;;;;;;;2.65;2.05;;;8.00;95.50;;;;;;5032711;28;20092;-82
2022/02/15 12:07:29;;;;;;;5.32;2.00;;;8.10;94.80;;;;;;5031707;28;20026;-82
2022/02/15 12:09:59;;;;;;;4.97;1.75;;;8.20;95.00;;;;;;5030537;28;20741;-83
2022/02/15 12:12:31;;;;;;;5.38;2.50;;;8.40;95.00;;;;;;5031201;28;20033;-82
2022/02/15 12:14:58;;;;;;;4.43;2.50;;;8.60;94.50;;;;;;5030291;28;20356;-82
2022/02/15 12:17:25;;;;;;;46.92;18.23;;;8.80;94.00;;;;;;5030786;28;20033;-83
2022/02/15 12:19:58;;;;;;;17.00;7.97;;;8.90;93.60;;;;;;5031156;28;20046;-82
2022/02/15 12:22:25;;;;;;;10.55;6.03;;;8.80;93.00;;;;;;5031532;28;20025;-82
2022/02/15 12:24:54;;;;;;;8.00;5.57;;;8.80;93.20;;;;;;5030763;28;20057;-83
2022/02/15 12:27:22;;;;;;;7.35;4.72;;;8.70;93.30;;;;;;5029960;28;20030;-83
2022/02/15 12:29:56;;;;;;;12.10;6.50;;;8.70;93.60;;;;;;5032295;28;20013;-83
2022/02/15 12:32:24;;;;;;;9.02;5.78;;;8.80;92.80;;;;;;5032769;28;20021;-82
2022/02/15 12:34:51;;;;;;;7.70;3.13;;;8.80;92.60;;;;;;5033938;28;20025;-81
2022/02/15 12:37:25;;;;;;;3.13;2.65;;;8.80;92.60;;;;;;5045417;28;20021;-82
2022/02/15 12:39:57;;;;;;;4.32;2.15;;;8.80;92.70;;;;;;5052242;28;20028;-82
2022/02/15 12:42:24;;;;;;;3.17;2.00;;;8.90;92.90;;;;;;5049359;28;20025;-82
2022/02/15 12:45:04;;;;;;;3.80;2.35;;;9.00;92.70;;;;;;5051968;28;20151;-82
2022/02/15 12:47:31;;;;;;;5.75;2.13;;;9.20;92.30;;;;;;5054531;28;20017;-82
2022/02/15 12:49:58;;;;;;;4.03;2.17;;;9.20;91.50;;;;;;5053986;28;20025;-83
2022/02/15 12:52:27;;;;;;;3.63;2.50;;;9.00;91.50;;;;;;5036606;28;20029;-83
2022/02/15 12:54:54;;;;;;;2.15;1.70;;;8.80;92.00;;;;;;5054161;28;20038;-83
2022/02/15 12:57:21;;;;;;;2.58;2.30;;;8.70;92.20;;;;;;5036474;28;20040;-83
2022/02/15 12:59:57;;;;;;;5.03;2.63;;;8.50;92.50;;;;;;5053829;28;20013;-83
2022/02/15 13:02:27;;;;;;;4.72;3.47;;;8.20;93.00;;;;;;5039257;28;20039;-83
2022/02/15 13:04:58;;;;;;;7.20;3.05;;;8.10;93.50;;;;;;5031427;28;20030;-83
2022/02/15 13:07:25;;;;;;;4.15;2.70;;;7.90;93.90;;;;;;5050543;28;20331;-82